createdAt,value
2018-12-25T00:00:47.156Z,5.83
2018-12-25T00:03:18.633Z,5.67
2018-12-25T00:05:48.128Z,5.57
2018-12-25T00:08:17.676Z,6.03
2018-12-25T00:10:48.235Z,5.00
2018-12-25T00:13:18.780Z,5.57
2018-12-25T00:15:48.289Z,5.67
2018-12-25T00:18:18.126Z,5.40
2018-12-25T00:20:47.450Z,6.00
2018-12-25T00:23:19.028Z,5.00
2018-12-25T00:25:48.447Z,5.83
2018-12-25T00:28:23.956Z,5.43
2018-12-25T00:30:53.439Z,5.83
2018-12-25T00:33:33.126Z,5.40
2018-12-25T00:36:07.332Z,6.43
2018-12-25T00:38:43.645Z,5.20
2018-12-25T00:41:17.253Z,5.97
2018-12-25T00:43:48.838Z,5.47
2018-12-25T00:46:19.302Z,6.57
2018-12-25T00:48:50.800Z,5.40
2018-12-25T00:51:23.295Z,5.70
2018-12-25T00:53:52.816Z,5.63
2018-12-25T00:56:23.236Z,4.83
2018-12-25T00:58:53.686Z,4.93
2018-12-25T01:01:24.183Z,5.20
2018-12-25T01:03:54.689Z,5.30
2018-12-25T01:06:24.177Z,5.47
2018-12-25T01:08:59.865Z,5.60
2018-12-25T01:11:29.333Z,5.17
2018-12-25T01:13:58.834Z,5.33
2018-12-25T01:16:29.331Z,5.70
2018-12-25T01:18:58.868Z,5.47
2018-12-25T01:21:36.484Z,5.60
2018-12-25T01:24:20.127Z,5.77
2018-12-25T01:26:49.592Z,5.13
2018-12-25T01:29:20.048Z,5.67
2018-12-25T01:31:56.487Z,5.50
2018-12-25T01:34:25.945Z,6.20
2018-12-25T01:36:57.452Z,6.00
2018-12-25T01:39:29.987Z,7.03
2018-12-25T01:42:00.438Z,5.57
2018-12-25T01:44:34.115Z,6.13
2018-12-25T01:47:05.685Z,5.67
2018-12-25T01:49:35.134Z,6.60
2018-12-25T01:52:05.653Z,6.30
2018-12-25T01:54:36.162Z,6.23
2018-12-25T01:57:05.644Z,6.20
2018-12-25T01:59:36.114Z,6.83
2018-12-25T02:02:07.579Z,6.70
2018-12-25T02:04:41.117Z,6.10
2018-12-25T02:07:12.548Z,6.67
2018-12-25T02:09:43.984Z,6.30
2018-12-25T02:12:13.535Z,6.57
2018-12-25T02:14:43.001Z,6.50
2018-12-25T02:17:27.609Z,6.90
2018-12-25T02:19:57.021Z,6.30
2018-12-25T02:22:26.572Z,6.30
2018-12-25T02:25:13.313Z,6.53
2018-12-25T02:27:42.768Z,6.80
2018-12-25T02:30:12.309Z,6.70
2018-12-25T02:32:41.720Z,6.90
2018-12-25T02:35:11.237Z,7.40
2018-12-25T02:37:41.680Z,7.10
2018-12-25T02:40:16.893Z,7.03
2018-12-25T02:42:55.623Z,6.83
2018-12-25T02:45:26.161Z,6.20
2018-12-25T02:47:56.644Z,6.47
2018-12-25T02:50:28.132Z,6.53
2018-12-25T02:52:57.652Z,7.30
2018-12-25T02:55:27.113Z,6.87
2018-12-25T02:57:56.570Z,6.63
2018-12-25T03:00:28.892Z,6.53
2018-12-25T03:02:58.444Z,6.13
2018-12-25T03:05:27.957Z,6.57
2018-12-25T03:07:59.463Z,6.73
2018-12-25T03:10:28.948Z,6.73
2018-12-25T03:13:00.748Z,6.17
2018-12-25T03:15:36.283Z,6.40
2018-12-25T03:18:05.742Z,7.07
2018-12-25T03:20:54.313Z,6.47
2018-12-25T03:23:24.812Z,6.17
2018-12-25T03:25:55.251Z,6.67
2018-12-25T03:28:24.665Z,6.30
2018-12-25T03:30:54.163Z,6.50
2018-12-25T03:33:23.618Z,6.80
2018-12-25T03:35:53.088Z,6.07
2018-12-25T03:38:22.557Z,6.83
2018-12-25T03:40:55.132Z,6.23
2018-12-25T03:43:28.760Z,6.77
2018-12-25T03:45:58.211Z,6.00
2018-12-25T03:48:27.658Z,7.07
2018-12-25T03:50:57.139Z,6.30
2018-12-25T03:53:26.599Z,6.83
2018-12-25T03:56:04.881Z,6.60
2018-12-25T03:58:35.290Z,6.67
2018-12-25T04:01:06.772Z,6.50
2018-12-25T04:03:36.303Z,6.57
2018-12-25T04:06:05.780Z,5.83
2018-12-25T04:08:43.292Z,6.63
2018-12-25T04:11:14.693Z,6.47
2018-12-25T04:13:45.163Z,6.30
2018-12-25T04:16:14.674Z,6.03
2018-12-25T04:18:44.070Z,5.77
2018-12-25T04:21:14.524Z,6.90
2018-12-25T04:23:43.944Z,6.40
2018-12-25T04:26:13.477Z,7.13
2018-12-25T04:28:45.868Z,7.20
2018-12-25T04:31:16.258Z,6.90
2018-12-25T04:33:47.797Z,6.37
2018-12-25T04:36:18.335Z,6.57
2018-12-25T04:38:47.849Z,7.10
2018-12-25T04:41:17.358Z,8.30
2018-12-25T04:43:47.879Z,7.60
2018-12-25T04:46:17.406Z,6.77
2018-12-25T04:48:46.889Z,6.73
2018-12-25T04:51:22.358Z,6.97
2018-12-25T04:53:55.878Z,8.20
2018-12-25T04:56:37.702Z,6.97
2018-12-25T04:59:08.125Z,7.53
2018-12-25T05:01:39.649Z,7.60
2018-12-25T05:04:26.333Z,7.50
2018-12-25T05:06:56.766Z,7.80
2018-12-25T05:09:36.101Z,8.03
2018-12-25T05:12:05.632Z,8.03
2018-12-25T05:14:36.085Z,7.90
2018-12-25T05:17:12.560Z,7.53
2018-12-25T05:19:43.977Z,7.40
2018-12-25T05:22:20.359Z,7.93
2018-12-25T05:24:51.818Z,7.47
2018-12-25T05:27:22.197Z,7.60
2018-12-25T05:29:52.131Z,7.47
2018-12-25T05:32:22.710Z,7.63
2018-12-25T05:34:53.301Z,7.37
2018-12-25T05:37:24.834Z,7.73
2018-12-25T05:40:01.134Z,7.60
2018-12-25T05:42:30.598Z,7.13
2018-12-25T05:45:06.902Z,7.70
2018-12-25T05:47:37.379Z,7.23
2018-12-25T05:50:07.094Z,7.23
2018-12-25T05:52:38.589Z,7.80
2018-12-25T05:55:08.094Z,7.97
2018-12-25T05:57:38.540Z,7.57
2018-12-25T06:00:13.262Z,7.37
2018-12-25T06:02:43.684Z,7.53
2018-12-25T06:05:13.182Z,7.90
2018-12-25T06:07:56.584Z,7.70
2018-12-25T06:10:26.004Z,8.17
2018-12-25T06:12:55.483Z,7.70
2018-12-25T06:15:25.051Z,7.83
2018-12-25T06:17:56.451Z,7.43
2018-12-25T06:20:25.907Z,7.10
2018-12-25T06:22:59.555Z,7.47
2018-12-25T06:25:31.160Z,7.23
2018-12-25T06:28:01.622Z,7.57
2018-12-25T06:30:31.072Z,7.40
2018-12-25T06:33:03.673Z,7.63
2018-12-25T06:35:35.192Z,8.10
2018-12-25T06:38:10.652Z,7.73
2018-12-25T06:40:50.460Z,7.40
2018-12-25T06:43:20.965Z,7.97
2018-12-25T06:46:03.055Z,8.37
2018-12-25T06:48:41.551Z,8.53
2018-12-25T06:51:12.047Z,8.43
2018-12-25T06:53:42.485Z,8.67
2018-12-25T06:56:13.921Z,7.70
2018-12-25T06:58:44.371Z,8.27
2018-12-25T07:01:21.173Z,7.90
2018-12-25T07:03:50.671Z,7.97
2018-12-25T07:06:20.131Z,8.00
2018-12-25T07:08:56.676Z,8.37
2018-12-25T07:11:26.176Z,8.00
2018-12-25T07:13:55.622Z,7.90
2018-12-25T07:16:35.004Z,8.83
2018-12-25T07:19:06.438Z,9.13
2018-12-25T07:21:35.981Z,8.57
2018-12-25T07:24:05.490Z,8.53
2018-12-25T07:26:41.808Z,8.97
2018-12-25T07:29:16.450Z,9.30
2018-12-25T07:31:45.862Z,9.03
2018-12-25T07:34:15.326Z,9.00
2018-12-25T07:37:02.421Z,9.13
2018-12-25T07:39:32.980Z,8.40
2018-12-25T07:42:02.478Z,8.70
2018-12-25T07:44:31.986Z,12.93
2018-12-25T07:47:01.428Z,9.17
2018-12-25T07:49:31.941Z,8.67
2018-12-25T07:52:01.364Z,9.17
2018-12-25T07:54:30.834Z,9.60
2018-12-25T07:57:03.908Z,8.87
2018-12-25T07:59:35.470Z,8.77
2018-12-25T08:02:10.713Z,9.17
2018-12-25T08:04:47.932Z,9.70
2018-12-25T08:07:19.362Z,9.43
2018-12-25T08:09:51.788Z,9.43
2018-12-25T08:12:27.267Z,9.67
2018-12-25T08:14:57.815Z,9.53
2018-12-25T08:17:27.283Z,9.47
2018-12-25T08:19:57.742Z,9.80
2018-12-25T08:22:27.253Z,9.23
2018-12-25T08:24:59.531Z,10.13
2018-12-25T08:27:29.961Z,9.27
2018-12-25T08:29:59.577Z,9.87
2018-12-25T08:32:28.973Z,10.27
2018-12-25T08:35:00.638Z,11.27
2018-12-25T08:37:30.076Z,10.57
2018-12-25T08:40:01.637Z,10.53
2018-12-25T08:42:33.294Z,10.47
2018-12-25T08:45:03.870Z,10.50
2018-12-25T08:47:33.415Z,9.93
2018-12-25T08:50:02.943Z,10.10
2018-12-25T08:52:40.619Z,10.03
2018-12-25T08:55:12.156Z,10.10
2018-12-25T08:57:49.613Z,10.87
2018-12-25T09:00:20.136Z,10.70
2018-12-25T09:02:49.645Z,10.73
2018-12-25T09:05:22.470Z,10.30
2018-12-25T09:08:00.133Z,22.93
2018-12-25T09:10:34.745Z,10.23
2018-12-25T09:13:04.870Z,10.07
2018-12-25T09:15:36.425Z,10.30
2018-12-25T09:18:08.038Z,11.00
2018-12-25T09:20:39.594Z,10.80
2018-12-25T09:23:11.128Z,10.50
2018-12-25T09:25:41.690Z,10.57
2018-12-25T09:28:11.204Z,11.07
2018-12-25T09:30:40.677Z,10.20
2018-12-25T09:33:11.512Z,10.43
2018-12-25T09:35:41.030Z,10.70
2018-12-25T09:38:10.549Z,10.30
2018-12-25T09:40:40.092Z,11.27
2018-12-25T09:43:09.703Z,11.50
2018-12-25T09:45:40.154Z,11.10
2018-12-25T09:48:13.376Z,11.90
2018-12-25T09:50:46.649Z,11.87
2018-12-25T09:53:16.181Z,11.53
2018-12-25T09:55:45.675Z,11.50
2018-12-25T09:58:15.201Z,11.57
2018-12-25T10:00:45.625Z,10.57
2018-12-25T10:03:16.109Z,10.43
2018-12-25T10:05:48.738Z,10.57
2018-12-25T10:08:18.221Z,11.00
2018-12-25T10:10:47.717Z,11.17
2018-12-25T10:13:25.457Z,11.37
2018-12-25T10:15:56.001Z,11.73
2018-12-25T10:18:26.566Z,11.47
2018-12-25T10:20:56.005Z,12.07
2018-12-25T10:23:27.495Z,11.70
2018-12-25T10:26:04.001Z,10.70
2018-12-25T10:28:33.600Z,11.33
2018-12-25T10:31:03.149Z,11.73
2018-12-25T10:33:32.574Z,11.50
2018-12-25T10:36:02.100Z,12.17
2018-12-25T10:38:32.563Z,11.47
2018-12-25T10:41:04.081Z,11.50
2018-12-25T10:43:34.902Z,11.30
2018-12-25T10:46:04.442Z,11.53
2018-12-25T10:48:33.935Z,12.30
2018-12-25T10:51:13.291Z,11.43
2018-12-25T10:53:43.815Z,11.90
2018-12-25T10:56:24.499Z,11.40
2018-12-25T10:58:59.749Z,12.03
2018-12-25T11:01:32.660Z,11.83
2018-12-25T11:04:02.227Z,12.50
2018-12-25T11:06:31.744Z,12.10
2018-12-25T11:09:01.182Z,12.50
2018-12-25T11:11:32.828Z,12.17
2018-12-25T11:14:02.531Z,11.47
2018-12-25T11:16:33.946Z,12.83
2018-12-25T11:19:06.172Z,12.63
2018-12-25T11:21:36.060Z,12.10
2018-12-25T11:24:08.664Z,11.97
2018-12-25T11:26:43.959Z,12.80
2018-12-25T11:29:13.657Z,11.70
2018-12-25T11:31:43.604Z,12.03
2018-12-25T11:34:15.627Z,11.87
2018-12-25T11:36:45.081Z,11.73
2018-12-25T11:39:14.534Z,11.23
2018-12-25T11:41:45.026Z,11.80
2018-12-25T11:44:14.454Z,10.00
2018-12-25T11:46:43.952Z,11.50
2018-12-25T11:49:23.792Z,11.80
2018-12-25T11:51:53.261Z,11.27
2018-12-25T11:54:22.697Z,10.80
2018-12-25T11:56:52.110Z,11.03
2018-12-25T11:59:21.556Z,10.80
2018-12-25T12:01:50.972Z,11.33
2018-12-25T12:04:20.360Z,9.83
2018-12-25T12:06:49.815Z,10.07
2018-12-25T12:09:19.235Z,10.00
2018-12-25T12:11:48.697Z,11.20
2018-12-25T12:14:18.171Z,9.73
2018-12-25T12:16:50.659Z,9.67
2018-12-25T12:19:20.074Z,9.97
2018-12-25T12:21:49.562Z,9.87
2018-12-25T12:24:18.996Z,9.87
2018-12-25T12:26:48.457Z,9.97
2018-12-25T12:29:17.897Z,9.43
2018-12-25T12:31:47.338Z,9.87
2018-12-25T12:34:16.789Z,9.80
2018-12-25T12:36:46.239Z,10.77
2018-12-25T12:39:16.798Z,10.33
2018-12-25T12:41:46.219Z,8.53
2018-12-25T12:44:15.673Z,9.87
2018-12-25T12:46:45.100Z,9.30
2018-12-25T12:49:14.611Z,10.20
2018-12-25T12:51:44.194Z,10.17
2018-12-25T12:54:13.641Z,10.00
2018-12-25T12:56:43.102Z,9.10
2018-12-25T12:59:12.500Z,10.10
2018-12-25T13:01:44.147Z,10.30
2018-12-25T13:04:14.669Z,10.23
2018-12-25T13:06:44.087Z,9.47
2018-12-25T13:09:14.097Z,10.13
2018-12-25T13:11:43.484Z,9.40
2018-12-25T13:14:14.014Z,8.90
2018-12-25T13:16:43.401Z,9.80
2018-12-25T13:19:12.873Z,9.37
2018-12-25T13:21:42.338Z,9.30
2018-12-25T13:24:11.788Z,9.70
2018-12-25T13:26:41.209Z,9.27
2018-12-25T13:29:10.659Z,10.23
2018-12-25T13:31:44.201Z,9.97
2018-12-25T13:34:13.667Z,11.00
2018-12-25T13:36:44.200Z,10.00
2018-12-25T13:39:13.643Z,11.27
2018-12-25T13:41:43.065Z,10.70
2018-12-25T13:44:12.516Z,11.13
2018-12-25T13:46:41.952Z,10.97
2018-12-25T13:49:11.414Z,11.50
2018-12-25T13:51:41.353Z,10.90
2018-12-25T13:54:11.004Z,10.67
2018-12-25T13:56:40.428Z,10.70
2018-12-25T13:59:09.847Z,10.50
2018-12-25T14:01:41.387Z,10.93
2018-12-25T14:04:10.840Z,10.53
2018-12-25T14:06:40.381Z,10.83
2018-12-25T14:09:09.972Z,10.47
2018-12-25T14:11:39.372Z,10.33
2018-12-25T14:14:08.827Z,10.10
2018-12-25T14:16:38.239Z,10.70
2018-12-25T14:19:07.741Z,11.10
2018-12-25T14:21:37.510Z,10.97
2018-12-25T14:24:07.176Z,10.73
2018-12-25T14:26:36.617Z,10.47
2018-12-25T14:29:06.077Z,10.53
2018-12-25T14:31:35.480Z,10.77
2018-12-25T14:34:04.857Z,9.70
2018-12-25T14:36:34.335Z,10.20
2018-12-25T14:39:05.328Z,10.43
2018-12-25T14:41:34.783Z,10.13
2018-12-25T14:44:05.370Z,10.90
2018-12-25T14:46:35.096Z,11.77
2018-12-25T14:49:04.581Z,11.80
2018-12-25T14:51:34.004Z,10.97
2018-12-25T14:54:03.454Z,11.03
2018-12-25T14:56:32.887Z,11.23
2018-12-25T14:59:02.311Z,11.97
2018-12-25T15:01:32.745Z,12.63
2018-12-25T15:04:03.229Z,12.10
2018-12-25T15:06:32.665Z,12.07
2018-12-25T15:09:02.152Z,11.13
2018-12-25T15:11:31.575Z,11.90
2018-12-25T15:14:01.044Z,11.73
2018-12-25T15:16:30.484Z,11.23
2018-12-25T15:18:59.892Z,11.33
2018-12-25T15:21:35.333Z,11.13
2018-12-25T15:24:04.801Z,11.60
2018-12-25T15:26:34.208Z,11.97
2018-12-25T15:29:03.648Z,11.90
2018-12-25T15:31:33.082Z,11.70
2018-12-25T15:34:02.545Z,11.80
2018-12-25T15:36:31.984Z,11.90
2018-12-25T15:39:01.424Z,11.77
2018-12-25T15:41:30.818Z,12.10
2018-12-25T15:44:00.184Z,12.17
2018-12-25T15:46:29.651Z,12.63
2018-12-25T15:48:59.058Z,12.00
2018-12-25T15:51:28.499Z,12.33
2018-12-25T15:53:57.922Z,11.60
2018-12-25T15:56:27.279Z,12.47
2018-12-25T15:58:56.682Z,12.67
2018-12-25T16:01:26.116Z,11.93
2018-12-25T16:03:55.528Z,12.10
2018-12-25T16:06:24.967Z,12.17
2018-12-25T16:08:54.379Z,13.57
2018-12-25T16:11:23.841Z,13.57
2018-12-25T16:13:53.297Z,13.03
2018-12-25T16:16:22.724Z,12.60
2018-12-25T16:18:52.161Z,13.77
2018-12-25T16:21:21.591Z,13.07
2018-12-25T16:23:51.034Z,13.63
2018-12-25T16:26:20.526Z,13.17
2018-12-25T16:28:49.937Z,13.23
2018-12-25T16:31:19.398Z,13.07
2018-12-25T16:33:48.802Z,13.27
2018-12-25T16:36:18.269Z,13.63
2018-12-25T16:38:47.701Z,14.70
2018-12-25T16:41:17.110Z,15.20
2018-12-25T16:43:46.545Z,15.43
2018-12-25T16:46:15.968Z,14.77
2018-12-25T16:48:45.388Z,14.93
2018-12-25T16:51:14.813Z,13.63
2018-12-25T16:53:44.276Z,14.40
2018-12-25T16:56:13.718Z,14.60
2018-12-25T16:58:43.131Z,14.60
2018-12-25T17:01:12.525Z,15.57
2018-12-25T17:03:41.910Z,14.43
2018-12-25T17:06:11.271Z,15.57
2018-12-25T17:08:41.662Z,15.43
2018-12-25T17:11:11.058Z,13.70
2018-12-25T17:13:40.519Z,14.07
2018-12-25T17:16:09.936Z,14.50
2018-12-25T17:18:39.359Z,15.37
2018-12-25T17:21:08.804Z,14.27
2018-12-25T17:23:38.178Z,15.70
2018-12-25T17:26:07.630Z,13.77
2018-12-25T17:28:37.048Z,13.70
2018-12-25T17:31:07.479Z,14.93
2018-12-25T17:33:36.903Z,15.33
2018-12-25T17:36:07.421Z,14.23
2018-12-25T17:38:36.855Z,14.80
2018-12-25T17:41:06.780Z,14.53
2018-12-25T17:43:36.222Z,14.83
2018-12-25T17:46:05.644Z,15.83
2018-12-25T17:48:35.053Z,15.70
2018-12-25T17:51:04.491Z,15.40
2018-12-25T17:53:33.905Z,15.10
2018-12-25T17:56:03.315Z,15.80
2018-12-25T17:58:34.737Z,16.77
2018-12-25T18:01:04.222Z,15.57
2018-12-25T18:03:33.697Z,14.87
2018-12-25T18:06:03.148Z,15.87
2018-12-25T18:08:32.595Z,15.67
2018-12-25T18:11:02.048Z,16.00
2018-12-25T18:13:31.496Z,15.40
2018-12-25T18:16:00.917Z,15.73
2018-12-25T18:18:30.356Z,15.47
2018-12-25T18:20:59.836Z,15.70
2018-12-25T18:23:29.276Z,15.00
2018-12-25T18:25:58.714Z,14.83
2018-12-25T18:28:31.136Z,15.20
2018-12-25T18:31:00.590Z,14.97
2018-12-25T18:33:30.106Z,14.93
2018-12-25T18:35:59.678Z,16.47
2018-12-25T18:38:29.141Z,14.57
2018-12-25T18:41:00.603Z,14.50
2018-12-25T18:43:30.145Z,20.80
2018-12-25T18:45:59.666Z,25.53
2018-12-25T18:48:29.182Z,15.10
2018-12-25T18:50:59.627Z,14.73
2018-12-25T18:53:29.108Z,21.00
2018-12-25T18:55:58.623Z,17.53
2018-12-25T18:58:30.124Z,15.10
2018-12-25T19:01:00.629Z,13.67
2018-12-25T19:03:31.081Z,14.07
2018-12-25T19:06:00.517Z,13.77
2018-12-25T19:08:29.985Z,14.47
2018-12-25T19:11:00.464Z,13.40
2018-12-25T19:13:39.084Z,15.70
2018-12-25T19:16:11.788Z,15.13
2018-12-25T19:18:42.315Z,16.07
2018-12-25T19:21:12.907Z,14.87
2018-12-25T19:23:57.886Z,15.40
2018-12-25T19:26:34.713Z,14.07
2018-12-25T19:29:06.346Z,15.80
2018-12-25T19:31:36.705Z,15.10
2018-12-25T19:34:10.980Z,14.50
2018-12-25T19:36:43.991Z,14.37
2018-12-25T19:39:13.404Z,14.77
2018-12-25T19:41:42.899Z,15.20
2018-12-25T19:44:12.397Z,14.50
2018-12-25T19:46:42.920Z,15.23
2018-12-25T19:49:14.445Z,15.63
2018-12-25T19:51:53.941Z,15.57
2018-12-25T19:54:44.545Z,15.80
2018-12-25T19:57:10.011Z,15.87
2018-12-25T19:59:39.411Z,16.20
2018-12-25T20:02:08.941Z,15.90
2018-12-25T20:05:24.640Z,16.17
2018-12-25T20:08:32.358Z,16.43
2018-12-25T20:11:51.888Z,16.50
2018-12-25T20:15:10.817Z,14.53
2018-12-25T20:18:15.932Z,15.40
2018-12-25T20:21:12.141Z,15.27
2018-12-25T20:24:24.283Z,16.27
2018-12-25T20:27:29.562Z,15.80
2018-12-25T20:30:50.268Z,14.97
2018-12-25T20:34:05.664Z,15.40
2018-12-25T20:37:12.877Z,14.93
2018-12-25T20:40:17.840Z,15.73
2018-12-25T20:43:30.241Z,16.10
2018-12-25T20:46:55.617Z,16.20
2018-12-25T20:50:12.418Z,16.20
2018-12-25T20:53:22.944Z,17.37
2018-12-25T20:56:41.265Z,17.33
2018-12-25T21:00:09.784Z,17.80
2018-12-25T21:03:17.389Z,16.97
2018-12-25T21:06:11.204Z,17.97
2018-12-25T21:09:23.219Z,16.60
2018-12-25T21:12:31.804Z,17.90
2018-12-25T21:15:45.794Z,16.27
2018-12-25T21:19:07.624Z,17.90
2018-12-25T21:22:19.107Z,17.07
2018-12-25T21:25:24.276Z,22.67
2018-12-25T21:27:52.085Z,18.13
2018-12-25T21:30:22.544Z,18.70
2018-12-25T21:32:55.102Z,17.00
2018-12-25T21:35:31.237Z,17.77
2018-12-25T21:38:01.285Z,18.40
2018-12-25T21:40:30.820Z,18.20
2018-12-25T21:43:00.564Z,17.63
2018-12-25T21:45:33.274Z,18.70
2018-12-25T21:48:05.881Z,18.07
2018-12-25T21:50:38.484Z,17.13
2018-12-25T21:53:10.274Z,19.13
2018-12-25T21:55:39.928Z,17.87
2018-12-25T21:58:17.664Z,18.60
2018-12-25T22:00:47.136Z,19.43
2018-12-25T22:03:17.103Z,17.83
2018-12-25T22:06:05.120Z,19.83
2018-12-25T22:08:36.704Z,18.83
2018-12-25T22:11:06.134Z,18.80
2018-12-25T22:13:37.697Z,19.53
2018-12-25T22:16:07.240Z,20.03
2018-12-25T22:18:37.828Z,19.53
2018-12-25T22:21:07.358Z,22.40
2018-12-25T22:23:38.932Z,28.60
2018-12-25T22:26:09.394Z,26.53
2018-12-25T22:28:40.731Z,33.87
2018-12-25T22:31:10.196Z,31.43
2018-12-25T22:33:40.220Z,34.63
2018-12-25T22:36:13.516Z,23.87
2018-12-25T22:38:42.966Z,23.13
2018-12-25T22:41:14.440Z,21.10
2018-12-25T22:43:50.141Z,20.27
2018-12-25T22:46:19.630Z,19.63
2018-12-25T22:48:49.167Z,20.10
2018-12-25T22:51:30.670Z,18.13
2018-12-25T22:54:06.445Z,20.00
2018-12-25T22:56:36.938Z,19.40
2018-12-25T22:59:12.318Z,20.30
2018-12-25T23:01:42.939Z,20.50
2018-12-25T23:04:12.502Z,20.73
2018-12-25T23:06:42.058Z,20.20
2018-12-25T23:09:11.642Z,20.87
2018-12-25T23:11:42.144Z,20.90
2018-12-25T23:14:11.665Z,21.03
2018-12-25T23:16:53.265Z,20.73
2018-12-25T23:19:28.616Z,22.43
2018-12-25T23:22:05.378Z,21.07
2018-12-25T23:24:34.770Z,20.13
2018-12-25T23:27:04.221Z,21.27
2018-12-25T23:29:33.726Z,20.97
2018-12-25T23:32:03.458Z,22.03
2018-12-25T23:34:33.005Z,21.40
2018-12-25T23:37:10.025Z,20.47
2018-12-25T23:39:39.464Z,22.03
2018-12-25T23:42:09.924Z,21.27
2018-12-25T23:44:39.480Z,21.50
2018-12-25T23:47:10.443Z,22.03
2018-12-25T23:49:40.943Z,21.60
2018-12-25T23:52:18.717Z,21.00
2018-12-25T23:54:53.435Z,21.20
2018-12-25T23:57:24.116Z,21.30
2018-12-25T23:59:53.583Z,20.90
